If you wish to contribute or participate in the discussions about articles you are invited to join SKYbrary as a registered user

 Actions

Le Havre Octeville Airport

From SKYbrary Wiki

LFOH
Airport
ICAO: LFOH – IATA: LEH
Summary
Name Le Havre Octeville Airport
Region Europe
Territory France FR.gif
Location , Haute-Normandie
Serving Le Havre
Elevation 95.402 m
313 ft
313 ft95.402 m
Type medium airport
Coordinates 49° 32' 2.00" N, 0° 5' 17.00" E
Runways
Designator Length Width Surface ROPS
5/23 2300 m7,545.932 ft
40 m131.234 ft
ASP /


METAR
Observation LFOH 231200Z AUTO 30004KT CAVOK 17/08 Q0995 BECMG 01010KT
Station La Heve
Date/Time 23 April 2019 12:00:00
Wind direction 300°
Wind speed 04 kts
Lowest cloud amount clouds and visibility OK
Temperature 17°C
Dew point 8°C
Humidity 55%
QNH 995 hPa
Weather condition n/a